22:43
Airports
History
Links
Donate
Help keep this website running!
PayPal
Bitcoin
This page is community maintained. The information is intended for PC simulator navigation or reference.
Always use approved charts for navigation.
0J0
Abbeville MuniUpdated 21-May-2014
Abbeville Muni (0J0)
Abbeville, Alabama, United States (36310)
(U)
Lat/Lng:31° 36' 0.8" N / 85° 14' 17.91" W
31.600222 / -85.238308
Elevation:469'ft / 143mMSL
Declination:W001°
ID / ICAO:0J0
FAA:0J0
Runways:1
Longest:(17-35) 885.1m / 2,904ft Asphalt
Distance To
Airport ID:
Nearby VORs <50NM
Nearby NDBs
Nearby WeatherUpdated 08-22-17 21:53 GMT
Nearby weather at KDHN, Dothan Rgnl located 23.0 nautical miles from 0J0
Altimeter: 30.04
Visibility: 10.0 statute miles
Wind: 6 knots (260°)
Temp: 33°c 91°f
Humidity: 49.4%

METAR: KDHN 222153Z 26006KT 10SM SCT047 33/21 A3004 RMK AO2 SLP167 T03330206

(Powered by phpweather)
Runway 17 / 35
Dimensions:885.1 x 24.4m 2904' x 80'ft
Surface:Asphalt
Edge Lights:Medium intensity
Runway 17 [A]Runway 35 [B]
Heading:169°MH  168°TH349°MH   348°TH
Lat:
Lng:
31° 36' 14.73"N
85° 14' 22.98"W
31° 35' 46.48"N
85° 14' 16.54"W
User Notes and Comments
Google Map
Nearby Airports
4 Fort Gaines-Clay County 11.7 NM
7J0 E 79°
(R) Coates 15.1 NM
79GA ESE 119°
(R) Sawyer Farm 16.4 NM
66GA ESE 122°
(U) Headland Muni 16.9 NM
0J6 SSW 195°
(C) Dothan Rgnl 23.0 NM
KDHN (WX) SSW 212°
(U) Clayton Muni 24.4 NM
11A NW 323°
(U) Early County 24.6 NM
KBIJ SE 124°
VFR Chart
Flight Planning at SkyVector.com